sensor_id;sensor_type;location;lat;lon;timestamp;P1;durP1;ratioP1;P2;durP2;ratioP2
7747;SDS011;3918;42.564;23.164;2024-01-15T05:02:55;4.40;;;2.43;;
7747;SDS011;3918;42.564;23.164;2024-01-15T05:05:23;2.33;;;1.80;;
7747;SDS011;3918;42.564;23.164;2024-01-15T05:07:51;2.00;;;1.90;;
7747;SDS011;3918;42.564;23.164;2024-01-15T05:10:17;1.27;;;1.10;;
7747;SDS011;3918;42.564;23.164;2024-01-15T05:12:44;5.07;;;2.43;;
7747;SDS011;3918;42.564;23.164;2024-01-15T05:15:11;2.23;;;1.90;;
7747;SDS011;3918;42.564;23.164;2024-01-15T05:17:38;2.70;;;1.93;;
7747;SDS011;3918;42.564;23.164;2024-01-15T05:20:06;2.73;;;1.63;;
7747;SDS011;3918;42.564;23.164;2024-01-15T05:22:34;4.00;;;2.30;;
7747;SDS011;3918;42.564;23.164;2024-01-15T05:25:01;1.50;;;1.40;;
7747;SDS011;3918;42.564;23.164;2024-01-15T05:27:27;1.43;;;1.33;;
7747;SDS011;3918;42.564;23.164;2024-01-15T05:29:54;2.90;;;1.60;;
7747;SDS011;3918;42.564;23.164;2024-01-15T05:32:21;2.17;;;1.70;;
7747;SDS011;3918;42.564;23.164;2024-01-15T05:34:48;1.67;;;1.60;;
7747;SDS011;3918;42.564;23.164;2024-01-15T05:37:16;1.07;;;1.07;;
7747;SDS011;3918;42.564;23.164;2024-01-15T05:39:43;2.03;;;1.90;;
7747;SDS011;3918;42.564;23.164;2024-01-15T05:42:09;4.10;;;1.60;;
7747;SDS011;3918;42.564;23.164;2024-01-15T05:44:36;1.33;;;1.23;;
7747;SDS011;3918;42.564;23.164;2024-01-15T05:47:03;1.60;;;1.37;;
7747;SDS011;3918;42.564;23.164;2024-01-15T05:49:30;2.57;;;1.40;;
7747;SDS011;3918;42.564;23.164;2024-01-15T05:51:57;2.27;;;2.07;;
7747;SDS011;3918;42.564;23.164;2024-01-15T05:54:25;2.63;;;2.20;;
7747;SDS011;3918;42.564;23.164;2024-01-15T05:56:52;3.00;;;2.00;;
7747;SDS011;3918;42.564;23.164;2024-01-15T05:59:19;2.07;;;1.90;;
7747;SDS011;3918;42.564;23.164;2024-01-15T06:01:45;2.20;;;2.00;;
7747;SDS011;3918;42.564;23.164;2024-01-15T06:04:12;7.13;;;2.47;;
7747;SDS011;3918;42.564;23.164;2024-01-15T06:06:39;2.90;;;2.03;;
7747;SDS011;3918;42.564;23.164;2024-01-15T06:09:06;1.57;;;1.27;;
7747;SDS011;3918;42.564;23.164;2024-01-15T06:11:35;3.17;;;1.50;;
7747;SDS011;3918;42.564;23.164;2024-01-15T06:14:02;8.10;;;2.37;;
7747;SDS011;3918;42.564;23.164;2024-01-15T06:16:28;2.13;;;1.87;;
7747;SDS011;3918;42.564;23.164;2024-01-15T06:18:56;3.63;;;2.47;;
7747;SDS011;3918;42.564;23.164;2024-01-15T06:21:22;2.20;;;2.00;;
7747;SDS011;3918;42.564;23.164;2024-01-15T06:23:49;2.77;;;2.03;;
7747;SDS011;3918;42.564;23.164;2024-01-15T06:26:16;2.93;;;1.90;;
7747;SDS011;3918;42.564;23.164;2024-01-15T06:28:44;4.83;;;2.17;;
7747;SDS011;3918;42.564;23.164;2024-01-15T06:31:11;2.23;;;1.70;;
7747;SDS011;3918;42.564;23.164;2024-01-15T06:33:38;0.93;;;0.93;;
7747;SDS011;3918;42.564;23.164;2024-01-15T06:36:05;1.43;;;1.33;;
7747;SDS011;3918;42.564;23.164;2024-01-15T06:38:32;7.00;;;2.33;;
7747;SDS011;3918;42.564;23.164;2024-01-15T06:40:59;1.63;;;1.50;;
7747;SDS011;3918;42.564;23.164;2024-01-15T06:43:31;2.40;;;2.20;;
7747;SDS011;3918;42.564;23.164;2024-01-15T06:45:59;2.50;;;1.73;;
7747;SDS011;3918;42.564;23.164;2024-01-15T06:48:25;1.50;;;1.40;;
7747;SDS011;3918;42.564;23.164;2024-01-15T06:50:52;4.80;;;2.00;;
7747;SDS011;3918;42.564;23.164;2024-01-15T06:53:19;5.87;;;2.17;;
7747;SDS011;3918;42.564;23.164;2024-01-15T06:55:46;5.60;;;2.10;;
7747;SDS011;3918;42.564;23.164;2024-01-15T06:58:14;2.23;;;2.03;;
7747;SDS011;3918;42.564;23.164;2024-01-15T07:00:41;8.70;;;2.17;;
7747;SDS011;3918;42.564;23.164;2024-01-15T07:03:09;1.63;;;1.53;;
7747;SDS011;3918;42.564;23.164;2024-01-15T07:05:36;1.90;;;1.80;;
7747;SDS011;3918;42.564;23.164;2024-01-15T07:08:03;1.53;;;1.23;;
7747;SDS011;3918;42.564;23.164;2024-01-15T07:10:30;1.67;;;1.57;;
7747;SDS011;3918;42.564;23.164;2024-01-15T07:12:57;3.90;;;1.90;;
7747;SDS011;3918;42.564;23.164;2024-01-15T07:15:24;1.70;;;1.37;;
7747;SDS011;3918;42.564;23.164;2024-01-15T07:17:51;2.57;;;2.23;;
7747;SDS011;3918;42.564;23.164;2024-01-15T07:20:19;3.50;;;2.77;;
7747;SDS011;3918;42.564;23.164;2024-01-15T07:22:46;5.50;;;3.37;;
7747;SDS011;3918;42.564;23.164;2024-01-15T07:25:13;2.63;;;1.93;;
7747;SDS011;3918;42.564;23.164;2024-01-15T07:27:39;2.77;;;2.00;;
7747;SDS011;3918;42.564;23.164;2024-01-15T07:30:10;3.43;;;2.57;;
7747;SDS011;3918;42.564;23.164;2024-01-15T07:32:37;1.93;;;1.83;;
7747;SDS011;3918;42.564;23.164;2024-01-15T07:35:04;2.77;;;1.67;;
7747;SDS011;3918;42.564;23.164;2024-01-15T07:37:32;1.53;;;1.20;;
7747;SDS011;3918;42.564;23.164;2024-01-15T07:39:59;2.60;;;1.73;;
7747;SDS011;3918;42.564;23.164;2024-01-15T07:42:26;2.07;;;1.50;;
7747;SDS011;3918;42.564;23.164;2024-01-15T07:44:53;25.37;;;8.57;;
7747;SDS011;3918;42.564;23.164;2024-01-15T07:47:20;2.13;;;1.92;;
7747;SDS011;3918;42.564;23.164;2024-01-15T07:49:47;2.50;;;2.30;;
7747;SDS011;3918;42.564;23.164;2024-01-15T07:52:15;4.03;;;2.10;;
7747;SDS011;3918;42.564;23.164;2024-01-15T07:54:44;2.35;;;2.15;;
7747;SDS011;3918;42.564;23.164;2024-01-15T07:57:11;2.47;;;1.73;;
7747;SDS011;3918;42.564;23.164;2024-01-15T07:59:38;2.45;;;1.55;;
7747;SDS011;3918;42.564;23.164;2024-01-15T08:02:05;2.35;;;1.95;;
7747;SDS011;3918;42.564;23.164;2024-01-15T08:04:33;3.38;;;1.33;;
7747;SDS011;3918;42.564;23.164;2024-01-15T08:07:00;1.90;;;1.80;;
7747;SDS011;3918;42.564;23.164;2024-01-15T08:09:28;4.30;;;2.00;;
7747;SDS011;3918;42.564;23.164;2024-01-15T08:11:56;3.30;;;1.80;;
7747;SDS011;3918;42.564;23.164;2024-01-15T08:14:23;1.52;;;1.42;;
7747;SDS011;3918;42.564;23.164;2024-01-15T08:16:50;2.65;;;1.33;;
7747;SDS011;3918;42.564;23.164;2024-01-15T08:19:17;1.00;;;1.00;;
7747;SDS011;3918;42.564;23.164;2024-01-15T08:21:45;1.35;;;0.98;;
7747;SDS011;3918;42.564;23.164;2024-01-15T08:24:11;1.95;;;1.23;;
7747;SDS011;3918;42.564;23.164;2024-01-15T08:26:38;1.50;;;1.40;;
7747;SDS011;3918;42.564;23.164;2024-01-15T08:29:06;5.10;;;1.98;;
7747;SDS011;3918;42.564;23.164;2024-01-15T08:31:33;2.22;;;1.30;;
7747;SDS011;3918;42.564;23.164;2024-01-15T08:34:00;1.35;;;1.25;;
7747;SDS011;3918;42.564;23.164;2024-01-15T08:36:27;0.95;;;0.95;;
7747;SDS011;3918;42.564;23.164;2024-01-15T08:38:54;1.38;;;1.27;;
7747;SDS011;3918;42.564;23.164;2024-01-15T08:41:21;1.40;;;1.23;;
7747;SDS011;3918;42.564;23.164;2024-01-15T08:43:48;1.20;;;1.20;;
7747;SDS011;3918;42.564;23.164;2024-01-15T08:46:16;3.58;;;1.20;;
7747;SDS011;3918;42.564;23.164;2024-01-15T08:48:45;1.23;;;1.08;;
7747;SDS011;3918;42.564;23.164;2024-01-15T08:51:12;1.27;;;1.13;;
7747;SDS011;3918;42.564;23.164;2024-01-15T08:53:39;1.33;;;1.23;;
7747;SDS011;3918;42.564;23.164;2024-01-15T08:56:05;0.98;;;0.98;;
7747;SDS011;3918;42.564;23.164;2024-01-15T08:58:33;1.23;;;1.15;;
7747;SDS011;3918;42.564;23.164;2024-01-15T09:01:01;1.77;;;1.33;;
7747;SDS011;3918;42.564;23.164;2024-01-15T09:03:29;1.30;;;1.30;;
7747;SDS011;3918;42.564;23.164;2024-01-15T09:05:57;3.08;;;1.48;;
7747;SDS011;3918;42.564;23.164;2024-01-15T09:08:24;1.88;;;1.08;;
7747;SDS011;3918;42.564;23.164;2024-01-15T09:10:52;1.75;;;1.65;;
7747;SDS011;3918;42.564;23.164;2024-01-15T09:13:19;8.20;;;4.28;;
7747;SDS011;3918;42.564;23.164;2024-01-15T09:15:46;1.10;;;1.10;;
7747;SDS011;3918;42.564;23.164;2024-01-15T09:18:12;1.85;;;1.35;;
7747;SDS011;3918;42.564;23.164;2024-01-15T09:20:40;1.98;;;1.23;;
7747;SDS011;3918;42.564;23.164;2024-01-15T09:23:07;1.95;;;1.30;;
7747;SDS011;3918;42.564;23.164;2024-01-15T09:25:34;1.95;;;1.35;;
7747;SDS011;3918;42.564;23.164;2024-01-15T09:28:01;2.53;;;0.98;;
7747;SDS011;3918;42.564;23.164;2024-01-15T09:30:27;1.80;;;1.17;;
7747;SDS011;3918;42.564;23.164;2024-01-15T09:32:54;1.63;;;1.42;;
7747;SDS011;3918;42.564;23.164;2024-01-15T09:35:22;1.50;;;1.20;;
7747;SDS011;3918;42.564;23.164;2024-01-15T09:37:50;1.25;;;1.20;;
7747;SDS011;3918;42.564;23.164;2024-01-15T09:40:17;1.70;;;1.60;;
7747;SDS011;3918;42.564;23.164;2024-01-15T09:42:46;2.58;;;2.38;;
7747;SDS011;3918;42.564;23.164;2024-01-15T09:45:13;1.50;;;1.40;;
7747;SDS011;3918;42.564;23.164;2024-01-15T09:47:41;2.50;;;2.28;;
7747;SDS011;3918;42.564;23.164;2024-01-15T09:50:08;1.15;;;1.08;;
7747;SDS011;3918;42.564;23.164;2024-01-15T09:52:35;2.40;;;1.75;;
7747;SDS011;3918;42.564;23.164;2024-01-15T09:55:04;1.90;;;1.80;;
7747;SDS011;3918;42.564;23.164;2024-01-15T09:57:31;2.60;;;2.28;;
7747;SDS011;3918;42.564;23.164;2024-01-15T09:59:59;2.38;;;2.17;;
7747;SDS011;3918;42.564;23.164;2024-01-15T10:02:30;1.67;;;1.58;;
7747;SDS011;3918;42.564;23.164;2024-01-15T10:04:57;1.63;;;1.30;;
7747;SDS011;3918;42.564;23.164;2024-01-15T10:07:24;2.70;;;2.00;;
7747;SDS011;3918;42.564;23.164;2024-01-15T10:09:53;2.08;;;1.90;;
7747;SDS011;3918;42.564;23.164;2024-01-15T10:12:22;2.58;;;2.00;;
7747;SDS011;3918;42.564;23.164;2024-01-15T10:14:48;2.00;;;1.88;;
7747;SDS011;3918;42.564;23.164;2024-01-15T10:17:17;2.28;;;1.55;;
7747;SDS011;3918;42.564;23.164;2024-01-15T10:19:44;1.60;;;1.48;;
7747;SDS011;3918;42.564;23.164;2024-01-15T10:22:12;1.92;;;1.83;;
7747;SDS011;3918;42.564;23.164;2024-01-15T10:24:40;1.20;;;1.20;;
7747;SDS011;3918;42.564;23.164;2024-01-15T10:27:07;1.92;;;1.83;;
7747;SDS011;3918;42.564;23.164;2024-01-15T10:29:36;1.80;;;1.65;;
7747;SDS011;3918;42.564;23.164;2024-01-15T10:32:05;1.65;;;1.55;;
7747;SDS011;3918;42.564;23.164;2024-01-15T10:34:33;1.55;;;1.45;;
7747;SDS011;3918;42.564;23.164;2024-01-15T10:37:03;2.78;;;1.73;;
7747;SDS011;3918;42.564;23.164;2024-01-15T10:39:30;1.83;;;1.45;;
7747;SDS011;3918;42.564;23.164;2024-01-15T10:41:58;1.80;;;1.50;;
7747;SDS011;3918;42.564;23.164;2024-01-15T10:44:25;4.68;;;1.63;;
7747;SDS011;3918;42.564;23.164;2024-01-15T10:46:53;1.52;;;1.42;;
7747;SDS011;3918;42.564;23.164;2024-01-15T10:49:21;1.35;;;1.25;;
7747;SDS011;3918;42.564;23.164;2024-01-15T10:51:51;1.73;;;1.58;;
7747;SDS011;3918;42.564;23.164;2024-01-15T10:54:19;1.45;;;1.38;;
7747;SDS011;3918;42.564;23.164;2024-01-15T10:56:48;2.92;;;1.98;;
7747;SDS011;3918;42.564;23.164;2024-01-15T10:59:16;2.08;;;1.58;;
7747;SDS011;3918;42.564;23.164;2024-01-15T11:01:44;3.05;;;2.30;;
7747;SDS011;3918;42.564;23.164;2024-01-15T11:04:12;7.57;;;1.70;;
7747;SDS011;3918;42.564;23.164;2024-01-15T11:06:41;2.22;;;1.88;;
7747;SDS011;3918;42.564;23.164;2024-01-15T11:09:09;3.17;;;2.65;;
7747;SDS011;3918;42.564;23.164;2024-01-15T11:11:39;1.33;;;1.23;;
7747;SDS011;3918;42.564;23.164;2024-01-15T11:14:07;5.68;;;2.22;;
7747;SDS011;3918;42.564;23.164;2024-01-15T11:19:25;9.52;;;1.63;;
7747;SDS011;3918;42.564;23.164;2024-01-15T11:22:01;4.57;;;2.00;;
7747;SDS011;3918;42.564;23.164;2024-01-15T11:24:34;6.40;;;3.15;;
7747;SDS011;3918;42.564;23.164;2024-01-15T11:27:02;3.95;;;2.60;;
7747;SDS011;3918;42.564;23.164;2024-01-15T11:29:30;2.90;;;1.90;;
7747;SDS011;3918;42.564;23.164;2024-01-15T11:32:00;6.23;;;2.93;;
7747;SDS011;3918;42.564;23.164;2024-01-15T11:34:59;3.35;;;2.25;;
7747;SDS011;3918;42.564;23.164;2024-01-15T11:37:28;6.80;;;2.42;;
7747;SDS011;3918;42.564;23.164;2024-01-15T11:40:17;2.13;;;1.85;;
7747;SDS011;3918;42.564;23.164;2024-01-15T11:42:44;3.17;;;2.72;;
7747;SDS011;3918;42.564;23.164;2024-01-15T11:45:12;3.05;;;2.55;;
7747;SDS011;3918;42.564;23.164;2024-01-15T11:47:46;2.72;;;1.58;;
7747;SDS011;3918;42.564;23.164;2024-01-15T11:50:38;3.03;;;2.25;;
7747;SDS011;3918;42.564;23.164;2024-01-15T11:53:09;3.97;;;2.72;;
7747;SDS011;3918;42.564;23.164;2024-01-15T11:55:49;5.30;;;3.13;;
7747;SDS011;3918;42.564;23.164;2024-01-15T11:58:17;2.92;;;2.40;;
7747;SDS011;3918;42.564;23.164;2024-01-15T12:00:45;2.25;;;2.05;;
7747;SDS011;3918;42.564;23.164;2024-01-15T12:03:14;3.88;;;2.47;;
7747;SDS011;3918;42.564;23.164;2024-01-15T12:05:42;3.63;;;2.45;;
7747;SDS011;3918;42.564;23.164;2024-01-15T12:08:09;3.92;;;2.95;;
7747;SDS011;3918;42.564;23.164;2024-01-15T12:10:36;2.33;;;2.13;;
7747;SDS011;3918;42.564;23.164;2024-01-15T12:13:06;4.30;;;1.90;;
7747;SDS011;3918;42.564;23.164;2024-01-15T12:15:37;2.22;;;1.98;;
7747;SDS011;3918;42.564;23.164;2024-01-15T12:18:07;2.20;;;2.00;;
7747;SDS011;3918;42.564;23.164;2024-01-15T12:20:34;8.35;;;2.53;;
7747;SDS011;3918;42.564;23.164;2024-01-15T12:23:03;2.78;;;2.15;;
7747;SDS011;3918;42.564;23.164;2024-01-15T12:25:31;3.30;;;2.05;;
7747;SDS011;3918;42.564;23.164;2024-01-15T12:27:58;3.20;;;2.17;;
7747;SDS011;3918;42.564;23.164;2024-01-15T12:30:26;3.55;;;3.20;;
7747;SDS011;3918;42.564;23.164;2024-01-15T12:32:53;2.40;;;1.80;;
7747;SDS011;3918;42.564;23.164;2024-01-15T12:35:21;2.67;;;2.08;;
7747;SDS011;3918;42.564;23.164;2024-01-15T12:37:47;2.08;;;1.70;;
7747;SDS011;3918;42.564;23.164;2024-01-15T12:40:19;2.05;;;1.85;;
7747;SDS011;3918;42.564;23.164;2024-01-15T12:42:46;1.50;;;1.40;;
7747;SDS011;3918;42.564;23.164;2024-01-15T12:45:13;2.08;;;1.90;;
7747;SDS011;3918;42.564;23.164;2024-01-15T12:47:40;2.08;;;1.80;;
7747;SDS011;3918;42.564;23.164;2024-01-15T12:50:09;1.90;;;1.80;;
7747;SDS011;3918;42.564;23.164;2024-01-15T12:52:37;3.00;;;1.92;;
7747;SDS011;3918;42.564;23.164;2024-01-15T12:55:07;1.73;;;1.40;;
7747;SDS011;3918;42.564;23.164;2024-01-15T12:57:36;1.23;;;1.15;;
7747;SDS011;3918;42.564;23.164;2024-01-15T13:00:03;2.30;;;2.10;;
7747;SDS011;3918;42.564;23.164;2024-01-15T13:02:32;4.43;;;3.10;;
7747;SDS011;3918;42.564;23.164;2024-01-15T13:04:59;1.75;;;1.65;;
7747;SDS011;3918;42.564;23.164;2024-01-15T13:07:29;1.52;;;1.48;;
7747;SDS011;3918;42.564;23.164;2024-01-15T13:09:57;1.27;;;1.27;;
7747;SDS011;3918;42.564;23.164;2024-01-15T13:12:24;1.38;;;1.27;;
7747;SDS011;3918;42.564;23.164;2024-01-15T13:14:52;2.38;;;1.80;;
7747;SDS011;3918;42.564;23.164;2024-01-15T13:17:19;2.00;;;1.80;;
7747;SDS011;3918;42.564;23.164;2024-01-15T13:19:46;1.60;;;1.50;;
7747;SDS011;3918;42.564;23.164;2024-01-15T13:22:13;1.98;;;1.75;;
7747;SDS011;3918;42.564;23.164;2024-01-15T13:24:41;2.08;;;1.98;;
7747;SDS011;3918;42.564;23.164;2024-01-15T13:27:08;1.70;;;1.60;;
7747;SDS011;3918;42.564;23.164;2024-01-15T13:29:34;1.90;;;1.77;;
7747;SDS011;3918;42.564;23.164;2024-01-15T13:32:03;1.70;;;1.42;;
7747;SDS011;3918;42.564;23.164;2024-01-15T13:34:31;1.55;;;1.45;;
7747;SDS011;3918;42.564;23.164;2024-01-15T13:36:58;1.45;;;1.35;;
7747;SDS011;3918;42.564;23.164;2024-01-15T13:39:24;1.50;;;1.40;;
7747;SDS011;3918;42.564;23.164;2024-01-15T13:41:51;3.17;;;2.00;;
7747;SDS011;3918;42.564;23.164;2024-01-15T13:44:18;1.77;;;1.67;;
7747;SDS011;3918;42.564;23.164;2024-01-15T13:46:45;1.55;;;1.42;;
7747;SDS011;3918;42.564;23.164;2024-01-15T13:49:13;1.75;;;1.65;;
7747;SDS011;3918;42.564;23.164;2024-01-15T13:51:40;1.67;;;1.58;;
7747;SDS011;3918;42.564;23.164;2024-01-15T13:54:07;1.98;;;1.80;;
7747;SDS011;3918;42.564;23.164;2024-01-15T13:56:34;2.10;;;1.25;;
7747;SDS011;3918;42.564;23.164;2024-01-15T13:59:00;2.45;;;1.55;;
7747;SDS011;3918;42.564;23.164;2024-01-15T14:01:30;1.80;;;1.70;;
7747;SDS011;3918;42.564;23.164;2024-01-15T14:03:58;1.30;;;1.20;;
7747;SDS011;3918;42.564;23.164;2024-01-15T14:06:26;1.77;;;1.55;;
7747;SDS011;3918;42.564;23.164;2024-01-15T14:08:53;1.50;;;1.40;;
7747;SDS011;3918;42.564;23.164;2024-01-15T14:11:20;2.53;;;2.08;;
7747;SDS011;3918;42.564;23.164;2024-01-15T14:13:48;2.38;;;1.90;;
7747;SDS011;3918;42.564;23.164;2024-01-15T14:16:14;2.28;;;2.10;;
7747;SDS011;3918;42.564;23.164;2024-01-15T14:18:41;2.47;;;1.85;;
7747;SDS011;3918;42.564;23.164;2024-01-15T14:21:08;3.00;;;1.70;;
7747;SDS011;3918;42.564;23.164;2024-01-15T14:23:37;1.80;;;1.67;;
7747;SDS011;3918;42.564;23.164;2024-01-15T14:26:03;2.13;;;1.90;;
7747;SDS011;3918;42.564;23.164;2024-01-15T14:28:30;2.03;;;1.80;;
7747;SDS011;3918;42.564;23.164;2024-01-15T14:30:57;1.60;;;1.50;;
7747;SDS011;3918;42.564;23.164;2024-01-15T14:33:25;1.60;;;1.50;;
7747;SDS011;3918;42.564;23.164;2024-01-15T14:35:52;1.98;;;1.88;;
7747;SDS011;3918;42.564;23.164;2024-01-15T14:38:18;2.08;;;1.88;;
7747;SDS011;3918;42.564;23.164;2024-01-15T14:40:47;2.45;;;2.25;;
7747;SDS011;3918;42.564;23.164;2024-01-15T14:43:14;4.20;;;1.80;;
7747;SDS011;3918;42.564;23.164;2024-01-15T14:45:41;2.38;;;1.77;;
7747;SDS011;3918;42.564;23.164;2024-01-15T14:48:08;3.67;;;2.83;;
7747;SDS011;3918;42.564;23.164;2024-01-15T14:50:35;2.47;;;2.17;;
7747;SDS011;3918;42.564;23.164;2024-01-15T14:53:02;3.13;;;2.05;;
7747;SDS011;3918;42.564;23.164;2024-01-15T14:55:29;3.40;;;1.48;;
7747;SDS011;3918;42.564;23.164;2024-01-15T14:57:58;3.53;;;2.10;;
7747;SDS011;3918;42.564;23.164;2024-01-15T15:00:25;3.10;;;2.42;;
7747;SDS011;3918;42.564;23.164;2024-01-15T15:02:52;2.58;;;1.98;;
7747;SDS011;3918;42.564;23.164;2024-01-15T15:05:19;2.22;;;2.10;;
7747;SDS011;3918;42.564;23.164;2024-01-15T15:07:46;1.52;;;1.45;;
7747;SDS011;3918;42.564;23.164;2024-01-15T15:10:13;5.32;;;1.77;;
7747;SDS011;3918;42.564;23.164;2024-01-15T15:12:40;1.67;;;1.58;;
7747;SDS011;3918;42.564;23.164;2024-01-15T15:15:08;1.17;;;1.17;;
7747;SDS011;3918;42.564;23.164;2024-01-15T15:17:36;2.15;;;1.95;;
7747;SDS011;3918;42.564;23.164;2024-01-15T15:20:04;1.65;;;1.55;;
7747;SDS011;3918;42.564;23.164;2024-01-15T15:22:31;2.13;;;2.03;;
7747;SDS011;3918;42.564;23.164;2024-01-15T15:24:58;1.67;;;1.58;;
7747;SDS011;3918;42.564;23.164;2024-01-15T15:27:25;2.45;;;1.95;;
7747;SDS011;3918;42.564;23.164;2024-01-15T15:29:52;1.77;;;1.67;;
7747;SDS011;3918;42.564;23.164;2024-01-15T15:32:20;2.55;;;1.52;;
7747;SDS011;3918;42.564;23.164;2024-01-15T15:34:47;6.38;;;3.83;;
7747;SDS011;3918;42.564;23.164;2024-01-15T15:37:14;1.25;;;1.17;;
7747;SDS011;3918;42.564;23.164;2024-01-15T15:39:42;1.83;;;1.73;;
7747;SDS011;3918;42.564;23.164;2024-01-15T15:42:09;1.30;;;1.20;;
7747;SDS011;3918;42.564;23.164;2024-01-15T15:44:36;1.40;;;1.30;;
7747;SDS011;3918;42.564;23.164;2024-01-15T15:47:08;1.50;;;1.40;;
7747;SDS011;3918;42.564;23.164;2024-01-15T15:49:36;2.55;;;1.60;;
7747;SDS011;3918;42.564;23.164;2024-01-15T15:52:03;1.75;;;1.65;;
7747;SDS011;3918;42.564;23.164;2024-01-15T15:54:30;2.15;;;1.95;;
7747;SDS011;3918;42.564;23.164;2024-01-15T15:56:57;1.10;;;1.10;;
7747;SDS011;3918;42.564;23.164;2024-01-15T15:59:23;3.10;;;1.90;;
7747;SDS011;3918;42.564;23.164;2024-01-15T16:01:50;1.50;;;1.40;;
7747;SDS011;3918;42.564;23.164;2024-01-15T16:04:18;1.80;;;1.70;;
7747;SDS011;3918;42.564;23.164;2024-01-15T16:06:46;1.73;;;1.48;;
7747;SDS011;3918;42.564;23.164;2024-01-15T16:09:13;2.67;;;2.35;;
7747;SDS011;3918;42.564;23.164;2024-01-15T16:11:40;2.45;;;1.58;;
7747;SDS011;3918;42.564;23.164;2024-01-15T16:14:07;3.50;;;1.98;;
7747;SDS011;3918;42.564;23.164;2024-01-15T16:16:34;2.30;;;1.80;;
7747;SDS011;3918;42.564;23.164;2024-01-15T16:19:01;2.85;;;2.17;;
7747;SDS011;3918;42.564;23.164;2024-01-15T16:21:29;1.80;;;1.70;;
7747;SDS011;3918;42.564;23.164;2024-01-15T16:23:57;2.58;;;2.35;;
7747;SDS011;3918;42.564;23.164;2024-01-15T16:26:24;2.10;;;2.00;;
7747;SDS011;3918;42.564;23.164;2024-01-15T16:28:51;2.03;;;1.88;;
7747;SDS011;3918;42.564;23.164;2024-01-15T16:31:18;2.67;;;2.22;;
7747;SDS011;3918;42.564;23.164;2024-01-15T16:33:45;2.78;;;2.28;;
7747;SDS011;3918;42.564;23.164;2024-01-15T16:36:11;2.42;;;2.22;;
7747;SDS011;3918;42.564;23.164;2024-01-15T16:38:38;2.13;;;1.80;;
7747;SDS011;3918;42.564;23.164;2024-01-15T16:41:07;1.98;;;1.63;;
7747;SDS011;3918;42.564;23.164;2024-01-15T16:43:33;10.93;;;1.83;;
7747;SDS011;3918;42.564;23.164;2024-01-15T16:46:00;2.13;;;1.85;;
7747;SDS011;3918;42.564;23.164;2024-01-15T16:48:32;4.03;;;2.78;;
7747;SDS011;3918;42.564;23.164;2024-01-15T16:51:04;3.08;;;2.20;;
7747;SDS011;3918;42.564;23.164;2024-01-15T16:53:31;6.88;;;4.03;;
7747;SDS011;3918;42.564;23.164;2024-01-15T16:56:01;3.00;;;2.45;;
7747;SDS011;3918;42.564;23.164;2024-01-15T16:58:30;3.17;;;1.67;;
7747;SDS011;3918;42.564;23.164;2024-01-15T17:00:57;3.45;;;1.98;;
7747;SDS011;3918;42.564;23.164;2024-01-15T17:03:24;1.58;;;1.35;;
7747;SDS011;3918;42.564;23.164;2024-01-15T17:05:51;3.20;;;1.48;;
7747;SDS011;3918;42.564;23.164;2024-01-15T17:08:21;2.35;;;1.95;;
7747;SDS011;3918;42.564;23.164;2024-01-15T17:10:47;10.27;;;2.08;;
7747;SDS011;3918;42.564;23.164;2024-01-15T17:13:14;3.10;;;2.40;;
7747;SDS011;3918;42.564;23.164;2024-01-15T17:15:42;1.70;;;1.60;;
7747;SDS011;3918;42.564;23.164;2024-01-15T17:18:09;2.63;;;1.88;;
7747;SDS011;3918;42.564;23.164;2024-01-15T17:20:36;3.30;;;2.33;;
7747;SDS011;3918;42.564;23.164;2024-01-15T17:23:05;1.55;;;1.45;;
7747;SDS011;3918;42.564;23.164;2024-01-15T17:25:32;4.43;;;2.40;;
7747;SDS011;3918;42.564;23.164;2024-01-15T17:27:59;2.25;;;2.10;;
7747;SDS011;3918;42.564;23.164;2024-01-15T17:30:26;2.60;;;2.40;;
7747;SDS011;3918;42.564;23.164;2024-01-15T17:32:54;3.08;;;1.67;;
7747;SDS011;3918;42.564;23.164;2024-01-15T17:35:21;2.30;;;2.10;;
7747;SDS011;3918;42.564;23.164;2024-01-15T17:37:48;4.75;;;3.50;;
7747;SDS011;3918;42.564;23.164;2024-01-15T17:40:15;1.73;;;1.63;;
7747;SDS011;3918;42.564;23.164;2024-01-15T17:42:42;2.55;;;2.08;;
7747;SDS011;3918;42.564;23.164;2024-01-15T17:45:10;3.47;;;2.33;;
7747;SDS011;3918;42.564;23.164;2024-01-15T17:47:37;2.45;;;2.25;;
7747;SDS011;3918;42.564;23.164;2024-01-15T17:50:06;5.13;;;2.88;;
7747;SDS011;3918;42.564;23.164;2024-01-15T17:52:33;3.35;;;2.33;;
7747;SDS011;3918;42.564;23.164;2024-01-15T17:55:01;2.67;;;2.15;;
7747;SDS011;3918;42.564;23.164;2024-01-15T17:57:28;20.52;;;10.52;;
7747;SDS011;3918;42.564;23.164;2024-01-15T17:59:55;4.65;;;3.63;;
7747;SDS011;3918;42.564;23.164;2024-01-15T18:02:22;2.33;;;1.25;;
7747;SDS011;3918;42.564;23.164;2024-01-15T18:04:48;4.68;;;2.33;;
7747;SDS011;3918;42.564;23.164;2024-01-15T18:07:17;3.83;;;2.03;;
7747;SDS011;3918;42.564;23.164;2024-01-15T18:09:45;2.38;;;2.13;;
7747;SDS011;3918;42.564;23.164;2024-01-15T18:12:12;4.85;;;2.13;;
7747;SDS011;3918;42.564;23.164;2024-01-15T18:14:38;5.10;;;3.55;;
7747;SDS011;3918;42.564;23.164;2024-01-15T18:17:05;3.40;;;2.45;;
7747;SDS011;3918;42.564;23.164;2024-01-15T18:19:33;2.10;;;1.88;;
7747;SDS011;3918;42.564;23.164;2024-01-15T18:22:00;2.25;;;2.10;;
7747;SDS011;3918;42.564;23.164;2024-01-15T18:24:29;2.10;;;1.98;;
7747;SDS011;3918;42.564;23.164;2024-01-15T18:26:56;2.53;;;1.85;;
7747;SDS011;3918;42.564;23.164;2024-01-15T18:29:24;2.47;;;2.25;;
7747;SDS011;3918;42.564;23.164;2024-01-15T18:31:50;3.80;;;2.78;;
7747;SDS011;3918;42.564;23.164;2024-01-15T18:34:17;1.67;;;1.58;;
7747;SDS011;3918;42.564;23.164;2024-01-15T18:36:44;5.95;;;2.83;;
7747;SDS011;3918;42.564;23.164;2024-01-15T18:39:12;4.00;;;2.75;;
7747;SDS011;3918;42.564;23.164;2024-01-15T18:41:42;9.52;;;2.80;;
7747;SDS011;3918;42.564;23.164;2024-01-15T18:44:09;2.22;;;2.03;;
7747;SDS011;3918;42.564;23.164;2024-01-15T18:46:37;2.70;;;2.50;;
7747;SDS011;3918;42.564;23.164;2024-01-15T18:49:06;4.18;;;3.83;;
7747;SDS011;3918;42.564;23.164;2024-01-15T18:51:32;8.00;;;4.03;;
7747;SDS011;3918;42.564;23.164;2024-01-15T18:53:59;5.43;;;5.03;;
7747;SDS011;3918;42.564;23.164;2024-01-15T18:56:26;5.97;;;5.57;;
7747;SDS011;3918;42.564;23.164;2024-01-15T18:58:55;6.37;;;5.87;;
7747;SDS011;3918;42.564;23.164;2024-01-15T19:01:25;7.33;;;6.63;;
7747;SDS011;3918;42.564;23.164;2024-01-15T19:03:53;8.47;;;7.77;;
7747;SDS011;3918;42.564;23.164;2024-01-15T19:06:20;8.53;;;7.90;;
7747;SDS011;3918;42.564;23.164;2024-01-15T19:08:47;8.60;;;7.90;;
7747;SDS011;3918;42.564;23.164;2024-01-15T19:11:14;8.27;;;7.67;;
7747;SDS011;3918;42.564;23.164;2024-01-15T19:13:42;8.03;;;7.43;;
7747;SDS011;3918;42.564;23.164;2024-01-15T19:16:10;7.93;;;7.43;;
7747;SDS011;3918;42.564;23.164;2024-01-15T19:18:37;9.17;;;8.47;;
7747;SDS011;3918;42.564;23.164;2024-01-15T19:21:05;11.40;;;10.50;;
7747;SDS011;3918;42.564;23.164;2024-01-15T19:23:31;11.83;;;10.73;;
7747;SDS011;3918;42.564;23.164;2024-01-15T19:25:58;9.77;;;9.20;;
7747;SDS011;3918;42.564;23.164;2024-01-15T19:28:28;15.57;;;14.27;;
7747;SDS011;3918;42.564;23.164;2024-01-15T19:30:54;12.33;;;11.53;;
7747;SDS011;3918;42.564;23.164;2024-01-15T19:33:22;12.17;;;11.47;;
7747;SDS011;3918;42.564;23.164;2024-01-15T19:35:49;12.20;;;11.20;;
7747;SDS011;3918;42.564;23.164;2024-01-15T19:38:17;13.80;;;12.90;;
7747;SDS011;3918;42.564;23.164;2024-01-15T19:40:44;32.67;;;20.20;;
7747;SDS011;3918;42.564;23.164;2024-01-15T19:43:10;12.37;;;11.37;;
7747;SDS011;3918;42.564;23.164;2024-01-15T19:45:37;12.70;;;11.80;;
7747;SDS011;3918;42.564;23.164;2024-01-15T19:48:04;11.27;;;10.47;;
7747;SDS011;3918;42.564;23.164;2024-01-15T19:50:33;13.00;;;11.07;;
7747;SDS011;3918;42.564;23.164;2024-01-15T19:52:59;11.30;;;10.47;;
7747;SDS011;3918;42.564;23.164;2024-01-15T19:55:26;11.30;;;10.50;;
7747;SDS011;3918;42.564;23.164;2024-01-15T19:57:53;14.83;;;13.63;;
7747;SDS011;3918;42.564;23.164;2024-01-15T20:00:20;10.13;;;9.53;;
